Weather History for Pontiac, MI

Change the Weather History Date:

Thursday, October 31, 2013

  Actual Average Record
Temperature  
Mean Temperature 56 °F -  
Max Temperature 62 °F 51 °F 70 °F (2003)
Min Temperature 51 °F 36 °F 28 °F (2002)
Degree Days  
Heating Degree Days 9    
Growing Degree Days 6 (Base 50)    
Moisture  
Dew Point 56 °F    
Average Humidity 93    
Maximum Humidity 100    
Minimum Humidity 88    
Precipitation  
Precipitation 1.23 in - - ()
Sea Level Pressure  
Sea Level Pressure 29.54 in    
Wind  
Wind Speed 9 mph (South)    
Max Wind Speed 17 mph    
Max Gust Speed 30 mph    
Visibility 5 miles    
Events Rain    
Averages and records for this station are not official NWS values.
T = Trace of Precipitation, MM = Missing Value Source: NWS Daily Summary

Daily Weather History Graph

Daily Weather History Graph

Search for Another Location

Airport:

Trip Planner

Search our weather history database for the weather conditions in past years. The results will help you decide how hot, cold, wet, or windy it might be!

Date:

Astronomy

Oct. 31, 2013 Rise Set
Actual Time 8:06 AM EDT 6:27 PM EDT
Civil Twilight 7:37 AM EDT 6:56 PM EDT
Nautical Twilight 7:03 AM EDT 7:29 PM EDT
Astronomical Twilight 6:31 AM EDT 8:02 PM EDT
Moon 4:51 AM EDT (10/31) 4:48 PM EDT (10/31)
Length of Visible Light 11h 19m
Length of Day
10h 20m
Waning Crescent, 10% of the Moon is Illuminated
Oct 31
Waning Crescent
Nov 3
New
Nov 10
First Quarter
Nov 17
Full
Nov 25
Last Quarter

Hourly Weather History & Observations

Time (EDT) Temp. Dew Point Humidity Pressure Visibility Wind Dir Wind Speed Gust Speed Precip Events Conditions
12:12 AM 51.8 °F 48.2 °F 88% 29.96 in 3.0 mi South 4.6 mph - 0.01 in Rain Light Rain
12:32 AM 51.8 °F 50.0 °F 94% 29.95 in 2.5 mi SSE 4.6 mph - 0.02 in Rain Light Rain
12:53 AM 52.0 °F 51.1 °F 97% 29.95 in 2.0 mi SSE 4.6 mph - 0.05 in Rain Rain
1:15 AM 53.6 °F 51.8 °F 94% 29.91 in 1.8 mi SE 6.9 mph - 0.06 in Rain Heavy Rain
1:31 AM 53.6 °F 51.8 °F 94% 29.89 in 2.0 mi SSE 6.9 mph - 0.11 in Rain Rain
1:53 AM 53.1 °F 52.0 °F 96% 29.89 in 2.0 mi SSE 6.9 mph - 0.14 in Rain Light Rain
2:18 AM 53.6 °F 51.8 °F 94% 29.87 in 3.0 mi SSE 11.5 mph - 0.02 in Rain Light Rain
2:37 AM 53.6 °F 53.6 °F 100% 29.85 in 2.0 mi SE 8.1 mph - 0.05 in Rain Rain
2:51 AM 53.6 °F 53.6 °F 100% 29.84 in 3.0 mi SSE 6.9 mph - 0.06 in Rain Light Rain
2:53 AM 54.0 °F 53.1 °F 97% 29.85 in 4.0 mi SSE 5.8 mph - 0.06 in Rain Light Rain
3:36 AM 55.4 °F 53.6 °F 94% 29.81 in 2.5 mi SSE 8.1 mph - 0.04 in Rain Rain
3:46 AM 55.4 °F 55.4 °F 100% 29.80 in 4.0 mi South 8.1 mph - 0.05 in Rain Light Rain
3:53 AM 55.9 °F 55.0 °F 97% 29.79 in 5.0 mi South 10.4 mph - 0.05 in Rain Light Rain
4:53 AM 57.9 °F 57.0 °F 97% 29.75 in 4.0 mi South 9.2 mph - 0.10 in Rain Rain
5:35 AM 60.8 °F 57.2 °F 88% 29.74 in 5.0 mi South 13.8 mph 18.4 mph 0.04 in Rain Light Rain
5:53 AM 61.0 °F 59.0 °F 93% 29.74 in 6.0 mi SSW 12.7 mph 23.0 mph 0.04 in Rain Light Rain
6:35 AM 60.8 °F 59.0 °F 94% 29.74 in 5.0 mi SW 10.4 mph - 0.07 in Rain Light Rain
6:53 AM 61.0 °F 59.0 °F 93% 29.73 in 4.0 mi SSW 6.9 mph - 0.08 in Rain Light Rain
7:53 AM 61.0 °F 59.0 °F 93% 29.72 in 5.0 mi SSW 8.1 mph - 0.05 in Rain Light Rain
8:38 AM 60.8 °F 59.0 °F 94% 29.70 in 6.0 mi SSW 5.8 mph - 0.02 in Rain Light Rain
8:53 AM 61.0 °F 59.0 °F 93% 29.71 in 6.0 mi SSW 6.9 mph - 0.03 in Rain Light Rain
9:12 AM 60.8 °F 59.0 °F 94% 29.70 in 2.5 mi South 6.9 mph - 0.02 in Rain Rain
9:36 AM 60.8 °F 59.0 °F 94% 29.69 in 2.5 mi South 10.4 mph - 0.05 in Rain Light Rain
9:50 AM 60.8 °F 59.0 °F 94% 29.68 in 3.0 mi South 10.4 mph 17.3 mph 0.06 in Rain Light Rain
9:53 AM 61.0 °F 59.0 °F 93% 29.68 in 3.0 mi South 12.7 mph 19.6 mph 0.07 in Rain Light Rain
10:11 AM 60.8 °F 59.0 °F 94% 29.67 in 5.0 mi South 12.7 mph 20.7 mph 0.00 in Rain Light Rain
10:53 AM 60.1 °F 57.0 °F 90% 29.65 in 4.0 mi SSW 17.3 mph 29.9 mph 0.04 in Rain Light Rain
11:38 AM 60.8 °F 57.2 °F 88% 29.63 in 2.5 mi SSW 11.5 mph 24.2 mph 0.06 in Rain Rain
11:51 AM 60.8 °F 57.2 °F 88% 29.63 in 3.0 mi SSW 16.1 mph 27.6 mph 0.08 in Rain Light Rain
11:53 AM 60.1 °F 57.0 °F 90% 29.62 in 3.0 mi SSW 12.7 mph 27.6 mph 0.08 in Rain Light Rain
12:53 PM 59.0 °F 55.9 °F 90% 29.60 in 4.0 mi SSW 15.0 mph 28.8 mph 0.06 in Rain Light Rain
1:53 PM 59.0 °F 55.9 °F 90% 29.57 in 6.0 mi SSW 12.7 mph 24.2 mph 0.06 in Rain Light Rain
2:31 PM 59.0 °F 57.2 °F 94% 29.55 in 3.0 mi South 10.4 mph 21.9 mph 0.02 in Rain Light Rain
2:43 PM 59.0 °F 57.2 °F 94% 29.54 in 4.0 mi South 12.7 mph 20.7 mph 0.03 in Rain Light Rain
2:48 PM 59.0 °F 57.2 °F 94% 29.54 in 4.0 mi South 15.0 mph 24.2 mph 0.04 in Rain Light Rain
2:53 PM 59.0 °F 57.0 °F 93% 29.53 in 4.0 mi South 16.1 mph 24.2 mph 0.04 in Rain Light Rain
2:59 PM 59.0 °F 57.2 °F 94% 29.53 in 4.0 mi South 13.8 mph 25.3 mph 0.00 in Rain Light Rain
3:22 PM 59.0 °F 55.4 °F 88% 29.51 in 7.0 mi South 13.8 mph 25.3 mph 0.01 in Rain Light Rain
3:53 PM 59.0 °F 57.0 °F 93% 29.48 in 5.0 mi South 11.5 mph 19.6 mph 0.02 in Rain Light Rain
4:03 PM 59.0 °F 57.2 °F 94% 29.48 in 4.0 mi South 12.7 mph 19.6 mph 0.02 in Rain Rain
4:25 PM 59.0 °F 57.2 °F 94% 29.46 in 2.5 mi South 11.5 mph 23.0 mph 0.06 in Rain Rain
4:34 PM 59.0 °F 57.2 °F 94% 29.46 in 3.0 mi South 10.4 mph - 0.07 in Rain Rain
4:48 PM 59.0 °F 57.2 °F 94% 29.44 in 5.0 mi South 13.8 mph 21.9 mph 0.08 in Rain Light Rain
4:53 PM 59.0 °F 57.0 °F 93% 29.44 in 5.0 mi South 10.4 mph 24.2 mph 0.09 in Rain Light Rain
5:00 PM 59.0 °F 57.2 °F 94% 29.44 in 4.0 mi South 12.7 mph 19.6 mph 0.00 in Rain Light Rain
5:39 PM 59.0 °F 55.4 °F 88% 29.41 in 2.0 mi South 11.5 mph 19.6 mph 0.01 in Rain Light Rain
5:53 PM 59.0 °F 55.9 °F 90% 29.39 in 2.0 mi South 12.7 mph 20.7 mph 0.02 in Rain Light Rain
6:19 PM 57.2 °F 55.4 °F 94% 29.38 in 2.0 mi South 13.8 mph 21.9 mph 0.01 in Rain Light Rain
6:53 PM 57.9 °F 55.9 °F 93% 29.34 in 2.0 mi South 11.5 mph - 0.02 in Rain Light Rain
7:03 PM 57.2 °F 55.4 °F 94% 29.34 in 4.0 mi South 12.7 mph 19.6 mph 0.00 in Rain Light Rain
7:53 PM 57.9 °F 57.0 °F 97% 29.30 in 5.0 mi South 10.4 mph 18.4 mph 0.00 in   Overcast
8:53 PM 60.1 °F 57.0 °F 90% 29.25 in 10.0 mi SSW 13.8 mph 23.0 mph 0.01 in Rain Light Rain
9:53 PM 60.1 °F 57.9 °F 93% 29.20 in 6.0 mi South 12.7 mph - 0.06 in Rain Rain
10:09 PM 60.8 °F 57.2 °F 88% 29.19 in 10.0 mi South 11.5 mph 20.7 mph 0.02 in Rain Light Rain
10:22 PM 60.8 °F 57.2 °F 88% 29.18 in 9.0 mi South 11.5 mph 20.7 mph 0.03 in Rain Light Rain
10:29 PM 60.8 °F 57.2 °F 88% 29.18 in 10.0 mi SSW 11.5 mph 20.7 mph 0.04 in Rain Light Rain
10:48 PM 60.8 °F 57.2 °F 88% 29.17 in 10.0 mi SSW 10.4 mph 19.6 mph 0.04 in Rain Light Rain
10:53 PM 60.1 °F 57.9 °F 93% 29.16 in 10.0 mi South 8.1 mph 17.3 mph 0.04 in Rain Light Rain
11:07 PM 60.8 °F 57.2 °F 88% 29.16 in 10.0 mi South 9.2 mph - 0.00 in   Overcast
11:24 PM 60.8 °F 57.2 °F 88% 29.16 in 10.0 mi South 11.5 mph - 0.00 in Rain Light Rain
11:43 PM 60.8 °F 57.2 °F 88% 29.17 in 9.0 mi South 13.8 mph 20.7 mph 0.01 in Rain Light Rain
11:48 PM 60.8 °F 57.2 °F 88% 29.16 in 8.0 mi South 15.0 mph 20.7 mph 0.01 in Rain Light Rain
11:50 PM 60.8 °F 57.2 °F 88% 29.16 in 8.0 mi South 11.5 mph 20.7 mph 0.01 in Rain Light Rain
11:53 PM 60.1 °F 57.9 °F 93% 29.15 in 9.0 mi South 11.5 mph 20.7 mph 0.02 in Rain Light Rain
11:58 PM 60.8 °F 57.2 °F 88% 29.15 in 10.0 mi South 12.7 mph - 0.00 in Rain Light Rain